sensor_id;sensor_type;location;lat;lon;timestamp;pressure;altitude;pressure_sealevel;temperature
64947;BMP280;51469;52.150;4.682;2024-03-06T00:02:10;101971.19;;;14.02
64947;BMP280;51469;52.150;4.682;2024-03-06T00:04:36;101963.63;;;13.99
64947;BMP280;51469;52.150;4.682;2024-03-06T00:07:02;101962.06;;;13.98
64947;BMP280;51469;52.150;4.682;2024-03-06T00:09:27;101970.69;;;13.96
64947;BMP280;51469;52.150;4.682;2024-03-06T00:11:53;101975.41;;;13.96
64947;BMP280;51469;52.150;4.682;2024-03-06T00:14:19;101985.31;;;13.97
64947;BMP280;51469;52.150;4.682;2024-03-06T00:16:46;101991.53;;;13.94
64947;BMP280;51469;52.150;4.682;2024-03-06T00:19:12;101998.22;;;13.93
64947;BMP280;51469;52.150;4.682;2024-03-06T00:21:38;102009.25;;;13.93
64947;BMP280;51469;52.150;4.682;2024-03-06T00:24:04;102002.91;;;13.89
64947;BMP280;51469;52.150;4.682;2024-03-06T00:26:29;102006.06;;;13.91
64947;BMP280;51469;52.150;4.682;2024-03-06T00:28:55;102010.88;;;13.94
64947;BMP280;51469;52.150;4.682;2024-03-06T00:31:20;102006.19;;;13.98
64947;BMP280;51469;52.150;4.682;2024-03-06T00:33:45;102006.13;;;13.94
64947;BMP280;51469;52.150;4.682;2024-03-06T00:36:11;102003.81;;;13.96
64947;BMP280;51469;52.150;4.682;2024-03-06T00:38:36;102006.25;;;14.01
64947;BMP280;51469;52.150;4.682;2024-03-06T00:41:02;102000.59;;;13.94
64947;BMP280;51469;52.150;4.682;2024-03-06T00:43:27;101998.13;;;13.86
64947;BMP280;51469;52.150;4.682;2024-03-06T00:45:53;102003.53;;;13.79
64947;BMP280;51469;52.150;4.682;2024-03-06T00:48:18;102006.06;;;13.91
64947;BMP280;51469;52.150;4.682;2024-03-06T00:50:45;102009.94;;;13.86
64947;BMP280;51469;52.150;4.682;2024-03-06T00:53:11;102016.38;;;13.94
64947;BMP280;51469;52.150;4.682;2024-03-06T00:55:36;102012.56;;;14.02
64947;BMP280;51469;52.150;4.682;2024-03-06T00:58:02;102018.19;;;14.09
64947;BMP280;51469;52.150;4.682;2024-03-06T01:03:02;102025.31;;;14.10
64947;BMP280;51469;52.150;4.682;2024-03-06T01:05:28;102026.88;;;14.11
64947;BMP280;51469;52.150;4.682;2024-03-06T01:07:53;102022.91;;;14.08
64947;BMP280;51469;52.150;4.682;2024-03-06T01:10:19;102019.41;;;14.11
64947;BMP280;51469;52.150;4.682;2024-03-06T01:12:45;102020.63;;;14.14
64947;BMP280;51469;52.150;4.682;2024-03-06T01:15:11;102022.66;;;14.17
64947;BMP280;51469;52.150;4.682;2024-03-06T01:17:36;102021.06;;;14.16
64947;BMP280;51469;52.150;4.682;2024-03-06T01:20:02;102027.00;;;14.18
64947;BMP280;51469;52.150;4.682;2024-03-06T01:22:29;102027.34;;;14.16
64947;BMP280;51469;52.150;4.682;2024-03-06T01:24:54;102028.56;;;14.19
64947;BMP280;51469;52.150;4.682;2024-03-06T01:27:19;102030.19;;;14.20
64947;BMP280;51469;52.150;4.682;2024-03-06T01:29:45;102031.00;;;14.24
64947;BMP280;51469;52.150;4.682;2024-03-06T01:32:11;102035.72;;;14.20
64947;BMP280;51469;52.150;4.682;2024-03-06T01:34:36;102033.41;;;14.22
64947;BMP280;51469;52.150;4.682;2024-03-06T01:37:02;102038.47;;;14.20
64947;BMP280;51469;52.150;4.682;2024-03-06T01:39:28;102024.88;;;14.08
64947;BMP280;51469;52.150;4.682;2024-03-06T01:41:53;102040.38;;;14.16
64947;BMP280;51469;52.150;4.682;2024-03-06T01:44:18;102049.06;;;14.18
64947;BMP280;51469;52.150;4.682;2024-03-06T01:46:44;102043.19;;;14.19
64947;BMP280;51469;52.150;4.682;2024-03-06T01:49:11;102037.31;;;14.21
64947;BMP280;51469;52.150;4.682;2024-03-06T01:51:37;102038.91;;;14.22
64947;BMP280;51469;52.150;4.682;2024-03-06T01:54:03;102031.34;;;14.19
64947;BMP280;51469;52.150;4.682;2024-03-06T01:56:37;102028.56;;;14.19
64947;BMP280;51469;52.150;4.682;2024-03-06T01:59:03;102040.44;;;14.19
64947;BMP280;51469;52.150;4.682;2024-03-06T02:01:29;102038.03;;;14.18
64947;BMP280;51469;52.150;4.682;2024-03-06T02:03:55;102043.56;;;14.18
64947;BMP280;51469;52.150;4.682;2024-03-06T02:06:21;102052.28;;;14.20
64947;BMP280;51469;52.150;4.682;2024-03-06T02:08:46;102051.44;;;14.16
64947;BMP280;51469;52.150;4.682;2024-03-06T02:11:12;102057.00;;;14.19
64947;BMP280;51469;52.150;4.682;2024-03-06T02:13:39;102052.59;;;14.15
64947;BMP280;51469;52.150;4.682;2024-03-06T02:16:05;102058.84;;;14.12
64947;BMP280;51469;52.150;4.682;2024-03-06T02:18:30;102056.81;;;14.09
64947;BMP280;51469;52.150;4.682;2024-03-06T02:20:56;102060.00;;;14.11
64947;BMP280;51469;52.150;4.682;2024-03-06T02:23:22;102052.59;;;14.15
64947;BMP280;51469;52.150;4.682;2024-03-06T02:25:47;102055.34;;;14.15
64947;BMP280;51469;52.150;4.682;2024-03-06T02:28:13;102060.13;;;14.18
64947;BMP280;51469;52.150;4.682;2024-03-06T02:30:38;102055.81;;;14.20
64947;BMP280;51469;52.150;4.682;2024-03-06T02:33:05;102062.56;;;14.23
64947;BMP280;51469;52.150;4.682;2024-03-06T02:35:37;102061.69;;;14.19
64947;BMP280;51469;52.150;4.682;2024-03-06T02:38:05;102049.06;;;14.18
64947;BMP280;51469;52.150;4.682;2024-03-06T02:40:31;102059.31;;;14.17
64947;BMP280;51469;52.150;4.682;2024-03-06T02:42:57;102059.38;;;14.21
64947;BMP280;51469;52.150;4.682;2024-03-06T02:45:22;102060.13;;;14.18
64947;BMP280;51469;52.150;4.682;2024-03-06T02:47:48;102056.19;;;14.19
64947;BMP280;51469;52.150;4.682;2024-03-06T02:50:14;102057.03;;;14.23
64947;BMP280;51469;52.150;4.682;2024-03-06T02:52:40;102062.56;;;14.23
64947;BMP280;51469;52.150;4.682;2024-03-06T02:55:06;102055.47;;;14.22
64947;BMP280;51469;52.150;4.682;2024-03-06T02:57:31;102051.97;;;14.25
64947;BMP280;51469;52.150;4.682;2024-03-06T02:59:57;102056.31;;;14.26
64947;BMP280;51469;52.150;4.682;2024-03-06T03:02:23;102051.50;;;14.23
64947;BMP280;51469;52.150;4.682;2024-03-06T03:04:52;102061.38;;;14.24
64947;BMP280;51469;52.150;4.682;2024-03-06T03:07:18;102062.56;;;14.23
64947;BMP280;51469;52.150;4.682;2024-03-06T03:09:45;102062.06;;;14.17
64947;BMP280;51469;52.150;4.682;2024-03-06T03:12:10;102064.81;;;14.17
64947;BMP280;51469;52.150;4.682;2024-03-06T03:14:36;102051.44;;;14.16
64947;BMP280;51469;52.150;4.682;2024-03-06T03:17:02;102057.34;;;14.18
64947;BMP280;51469;52.150;4.682;2024-03-06T03:19:28;102056.94;;;14.16
64947;BMP280;51469;52.150;4.682;2024-03-06T03:21:53;102064.72;;;14.10
64947;BMP280;51469;52.150;4.682;2024-03-06T03:24:18;102041.69;;;13.99
64947;BMP280;51469;52.150;4.682;2024-03-06T03:26:46;102066.28;;;14.08
64947;BMP280;51469;52.150;4.682;2024-03-06T03:29:11;102068.72;;;14.13
64947;BMP280;51469;52.150;4.682;2024-03-06T03:31:36;102075.00;;;14.10
64947;BMP280;51469;52.150;4.682;2024-03-06T03:34:04;102063.81;;;14.03
64947;BMP280;51469;52.150;4.682;2024-03-06T03:36:30;102072.91;;;14.03
64947;BMP280;51469;52.150;4.682;2024-03-06T03:38:55;102071.28;;;14.02
64947;BMP280;51469;52.150;4.682;2024-03-06T03:41:20;102074.56;;;14.08
64947;BMP280;51469;52.150;4.682;2024-03-06T03:43:46;102070.84;;;13.97
64947;BMP280;51469;52.150;4.682;2024-03-06T03:46:11;102075.91;;;13.95
64947;BMP280;51469;52.150;4.682;2024-03-06T03:48:37;102086.22;;;13.98
64947;BMP280;51469;52.150;4.682;2024-03-06T03:51:03;102081.38;;;13.91
64947;BMP280;51469;52.150;4.682;2024-03-06T03:53:30;102078.66;;;13.95
64947;BMP280;51469;52.150;4.682;2024-03-06T03:55:55;102077.94;;;13.98
64947;BMP280;51469;52.150;4.682;2024-03-06T03:58:20;102076.34;;;13.97
64947;BMP280;51469;52.150;4.682;2024-03-06T04:00:46;102084.63;;;13.97
64947;BMP280;51469;52.150;4.682;2024-03-06T04:03:11;102080.97;;;13.93
64947;BMP280;51469;52.150;4.682;2024-03-06T04:05:37;102075.06;;;13.91
64947;BMP280;51469;52.150;4.682;2024-03-06T04:08:02;102089.38;;;13.74
64947;BMP280;51469;52.150;4.682;2024-03-06T04:10:27;102073.78;;;13.85
64947;BMP280;51469;52.150;4.682;2024-03-06T04:12:53;102080.09;;;13.85
64947;BMP280;51469;52.150;4.682;2024-03-06T04:15:19;102086.81;;;13.88
64947;BMP280;51469;52.150;4.682;2024-03-06T04:17:45;102091.81;;;13.79
64947;BMP280;51469;52.150;4.682;2024-03-06T04:20:10;102095.28;;;13.76
64947;BMP280;51469;52.150;4.682;2024-03-06T04:22:38;102091.88;;;13.82
64947;BMP280;51469;52.150;4.682;2024-03-06T04:25:04;102092.66;;;13.83
64947;BMP280;51469;52.150;4.682;2024-03-06T04:27:30;102098.91;;;13.80
64947;BMP280;51469;52.150;4.682;2024-03-06T04:29:55;102102.94;;;13.86
64947;BMP280;51469;52.150;4.682;2024-03-06T04:32:20;102095.03;;;13.84
64947;BMP280;51469;52.150;4.682;2024-03-06T04:34:46;102105.16;;;13.77
64947;BMP280;51469;52.150;4.682;2024-03-06T04:37:11;102104.72;;;13.75
64947;BMP280;51469;52.150;4.682;2024-03-06T04:39:37;102100.25;;;13.67
64947;BMP280;51469;52.150;4.682;2024-03-06T04:42:02;102112.19;;;13.74
64947;BMP280;51469;52.150;4.682;2024-03-06T04:44:28;102107.88;;;13.73
64947;BMP280;51469;52.150;4.682;2024-03-06T04:46:53;102114.25;;;13.81
64947;BMP280;51469;52.150;4.682;2024-03-06T04:49:18;102117.84;;;13.81
64947;BMP280;51469;52.150;4.682;2024-03-06T04:51:44;102125.75;;;13.83
64947;BMP280;51469;52.150;4.682;2024-03-06T04:54:09;102125.03;;;13.86
64947;BMP280;51469;52.150;4.682;2024-03-06T04:56:34;102115.47;;;13.80
64947;BMP280;51469;52.150;4.682;2024-03-06T04:59:00;102124.91;;;13.79
64947;BMP280;51469;52.150;4.682;2024-03-06T05:01:28;102113.59;;;13.65
64947;BMP280;51469;52.150;4.682;2024-03-06T05:03:54;102132.28;;;13.75
64947;BMP280;51469;52.150;4.682;2024-03-06T05:06:19;102133.06;;;13.72
64947;BMP280;51469;52.150;4.682;2024-03-06T05:08:44;102127.09;;;13.70
64947;BMP280;51469;52.150;4.682;2024-03-06T05:11:10;102128.25;;;13.69
64947;BMP280;51469;52.150;4.682;2024-03-06T05:13:35;102114.56;;;13.53
64947;BMP280;51469;52.150;4.682;2024-03-06T05:16:00;102134.84;;;13.64
64947;BMP280;51469;52.150;4.682;2024-03-06T05:18:26;102142.72;;;13.62
64947;BMP280;51469;52.150;4.682;2024-03-06T05:20:51;102138.88;;;13.67
64947;BMP280;51469;52.150;4.682;2024-03-06T05:23:16;102145.84;;;13.61
64947;BMP280;51469;52.150;4.682;2024-03-06T05:25:43;102152.06;;;13.58
64947;BMP280;51469;52.150;4.682;2024-03-06T05:28:08;102141.03;;;13.58
64947;BMP280;51469;52.150;4.682;2024-03-06T05:30:33;102146.53;;;13.58
64947;BMP280;51469;52.150;4.682;2024-03-06T05:32:59;102137.19;;;13.62
64947;BMP280;51469;52.150;4.682;2024-03-06T05:35:24;102134.06;;;13.64
64947;BMP280;51469;52.150;4.682;2024-03-06T05:37:50;102143.25;;;13.49
64947;BMP280;51469;52.150;4.682;2024-03-06T05:40:15;102150.22;;;13.43
64947;BMP280;51469;52.150;4.682;2024-03-06T05:42:41;102151.63;;;13.37
64947;BMP280;51469;52.150;4.682;2024-03-06T05:45:07;102150.78;;;13.33
64947;BMP280;51469;52.150;4.682;2024-03-06T05:47:36;102157.00;;;13.30
64947;BMP280;51469;52.150;4.682;2024-03-06T05:50:02;102165.13;;;13.04
64947;BMP280;51469;52.150;4.682;2024-03-06T05:52:30;102155.31;;;13.06
64947;BMP280;51469;52.150;4.682;2024-03-06T05:54:56;102167.59;;;13.09
64947;BMP280;51469;52.150;4.682;2024-03-06T05:57:21;102165.00;;;13.00
64947;BMP280;51469;52.150;4.682;2024-03-06T05:59:47;102175.09;;;12.93
64947;BMP280;51469;52.150;4.682;2024-03-06T06:02:12;102176.69;;;12.94
64947;BMP280;51469;52.150;4.682;2024-03-06T06:04:37;102185.09;;;12.82
64947;BMP280;51469;52.150;4.682;2024-03-06T06:07:03;102185.44;;;12.80
64947;BMP280;51469;52.150;4.682;2024-03-06T06:09:28;102185.09;;;12.82
64947;BMP280;51469;52.150;4.682;2024-03-06T06:11:54;102185.00;;;12.78
64947;BMP280;51469;52.150;4.682;2024-03-06T06:14:19;102198.66;;;12.75
64947;BMP280;51469;52.150;4.682;2024-03-06T06:16:45;102192.72;;;12.73
64947;BMP280;51469;52.150;4.682;2024-03-06T06:19:10;102205.94;;;12.67
64947;BMP280;51469;52.150;4.682;2024-03-06T06:21:35;102216.44;;;12.62
64947;BMP280;51469;52.150;4.682;2024-03-06T06:24:03;102225.06;;;12.45
64947;BMP280;51469;52.150;4.682;2024-03-06T06:26:32;102235.00;;;12.49
64947;BMP280;51469;52.150;4.682;2024-03-06T06:28:57;102227.75;;;12.57
64947;BMP280;51469;52.150;4.682;2024-03-06T06:31:23;102228.19;;;12.59
64947;BMP280;51469;52.150;4.682;2024-03-06T06:33:50;102246.34;;;12.48
64947;BMP280;51469;52.150;4.682;2024-03-06T06:36:16;102249.47;;;12.46
64947;BMP280;51469;52.150;4.682;2024-03-06T06:38:43;102244.22;;;12.26
64947;BMP280;51469;52.150;4.682;2024-03-06T06:41:09;102253.38;;;12.30
64947;BMP280;51469;52.150;4.682;2024-03-06T06:43:35;102263.38;;;12.22
64947;BMP280;51469;52.150;4.682;2024-03-06T06:46:00;102256.22;;;12.06
64947;BMP280;51469;52.150;4.682;2024-03-06T06:48:26;102267.63;;;12.20
64947;BMP280;51469;52.150;4.682;2024-03-06T06:50:52;102261.41;;;12.23
64947;BMP280;51469;52.150;4.682;2024-03-06T06:53:17;102270.13;;;12.25
64947;BMP280;51469;52.150;4.682;2024-03-06T06:55:42;102278.63;;;12.20
64947;BMP280;51469;52.150;4.682;2024-03-06T06:58:08;102268.75;;;12.03
64947;BMP280;51469;52.150;4.682;2024-03-06T07:00:34;102278.97;;;12.03
64947;BMP280;51469;52.150;4.682;2024-03-06T07:02:59;102282.84;;;12.02
64947;BMP280;51469;52.150;4.682;2024-03-06T07:05:25;102285.13;;;12.00
64947;BMP280;51469;52.150;4.682;2024-03-06T07:07:51;102297.75;;;12.01
64947;BMP280;51469;52.150;4.682;2024-03-06T07:10:18;102291.44;;;12.00
64947;BMP280;51469;52.150;4.682;2024-03-06T07:12:44;102298.44;;;11.98
64947;BMP280;51469;52.150;4.682;2024-03-06T07:15:09;102295.94;;;11.93
64947;BMP280;51469;52.150;4.682;2024-03-06T07:17:34;102303.72;;;11.91
64947;BMP280;51469;52.150;4.682;2024-03-06T07:20:00;102297.31;;;11.87
64947;BMP280;51469;52.150;4.682;2024-03-06T07:22:25;102308.13;;;11.80
64947;BMP280;51469;52.150;4.682;2024-03-06T07:24:51;102312.25;;;11.62
64947;BMP280;51469;52.150;4.682;2024-03-06T07:27:16;102320.69;;;11.53
64947;BMP280;51469;52.150;4.682;2024-03-06T07:29:42;102314.34;;;11.65
64947;BMP280;51469;52.150;4.682;2024-03-06T07:32:07;102318.56;;;11.62
64947;BMP280;51469;52.150;4.682;2024-03-06T07:34:33;102321.22;;;11.59
64947;BMP280;51469;52.150;4.682;2024-03-06T07:36:59;102321.56;;;11.57
64947;BMP280;51469;52.150;4.682;2024-03-06T07:39:25;102327.28;;;11.64
64947;BMP280;51469;52.150;4.682;2024-03-06T07:41:51;102327.28;;;11.64
64947;BMP280;51469;52.150;4.682;2024-03-06T07:44:16;102337.00;;;11.74
64947;BMP280;51469;52.150;4.682;2024-03-06T07:46:41;102335.63;;;11.80
64947;BMP280;51469;52.150;4.682;2024-03-06T07:49:07;102340.06;;;11.84
64947;BMP280;51469;52.150;4.682;2024-03-06T07:51:32;102342.44;;;11.98
64947;BMP280;51469;52.150;4.682;2024-03-06T07:53:58;102345.50;;;12.08
64947;BMP280;51469;52.150;4.682;2024-03-06T07:56:25;102346.06;;;12.14
64947;BMP280;51469;52.150;4.682;2024-03-06T07:58:50;102352.03;;;12.16
64947;BMP280;51469;52.150;4.682;2024-03-06T08:01:16;102348.31;;;12.36
64947;BMP280;51469;52.150;4.682;2024-03-06T08:03:41;102350.19;;;12.47
64947;BMP280;51469;52.150;4.682;2024-03-06T08:06:08;102360.69;;;12.57
64947;BMP280;51469;52.150;4.682;2024-03-06T08:08:34;102364.38;;;12.77
64947;BMP280;51469;52.150;4.682;2024-03-06T08:10:59;102370.94;;;12.88
64947;BMP280;51469;52.150;4.682;2024-03-06T08:13:24;102365.44;;;12.88
64947;BMP280;51469;52.150;4.682;2024-03-06T08:15:50;102362.63;;;13.00
64947;BMP280;51469;52.150;4.682;2024-03-06T08:18:16;102374.16;;;12.90
64947;BMP280;51469;52.150;4.682;2024-03-06T08:20:41;102373.13;;;13.10
64947;BMP280;51469;52.150;4.682;2024-03-06T08:23:08;102373.97;;;13.14
64947;BMP280;51469;52.150;4.682;2024-03-06T08:25:35;102382.97;;;13.26
64947;BMP280;51469;52.150;4.682;2024-03-06T08:28:00;102378.97;;;13.39
64947;BMP280;51469;52.150;4.682;2024-03-06T08:30:25;102379.81;;;13.59
64947;BMP280;51469;52.150;4.682;2024-03-06T08:32:51;102386.75;;;13.53
64947;BMP280;51469;52.150;4.682;2024-03-06T08:35:16;102391.97;;;13.73
64947;BMP280;51469;52.150;4.682;2024-03-06T08:37:43;102388.66;;;13.68
64947;BMP280;51469;52.150;4.682;2024-03-06T08:40:10;102392.91;;;13.81
64947;BMP280;51469;52.150;4.682;2024-03-06T08:42:39;102391.94;;;13.89
64947;BMP280;51469;52.150;4.682;2024-03-06T08:45:05;102403.81;;;14.08
64947;BMP280;51469;52.150;4.682;2024-03-06T08:47:30;102396.97;;;14.21
64947;BMP280;51469;52.150;4.682;2024-03-06T08:49:56;102405.31;;;14.44
64947;BMP280;51469;52.150;4.682;2024-03-06T08:52:21;102398.59;;;14.64
64947;BMP280;51469;52.150;4.682;2024-03-06T08:54:46;102403.81;;;14.69
64947;BMP280;51469;52.150;4.682;2024-03-06T08:57:12;102406.09;;;14.86
64947;BMP280;51469;52.150;4.682;2024-03-06T08:59:37;102407.78;;;15.13
64947;BMP280;51469;52.150;4.682;2024-03-06T09:02:14;102407.69;;;15.32
64947;BMP280;51469;52.150;4.682;2024-03-06T09:04:40;102412.59;;;15.42
64947;BMP280;51469;52.150;4.682;2024-03-06T09:07:06;102418.91;;;15.43
64947;BMP280;51469;52.150;4.682;2024-03-06T09:09:31;102410.75;;;15.79
64947;BMP280;51469;52.150;4.682;2024-03-06T09:11:59;102425.78;;;15.78
64947;BMP280;51469;52.150;4.682;2024-03-06T09:14:25;102422.34;;;15.59
64947;BMP280;51469;52.150;4.682;2024-03-06T09:16:50;102425.50;;;15.57
64947;BMP280;51469;52.150;4.682;2024-03-06T09:19:16;102420.88;;;15.42
64947;BMP280;51469;52.150;4.682;2024-03-06T09:21:41;102427.94;;;15.14
64947;BMP280;51469;52.150;4.682;2024-03-06T09:24:06;102432.75;;;15.20
64947;BMP280;51469;52.150;4.682;2024-03-06T09:26:32;102426.63;;;15.30
64947;BMP280;51469;52.150;4.682;2024-03-06T09:28:57;102434.09;;;15.52
64947;BMP280;51469;52.150;4.682;2024-03-06T09:31:23;102435.69;;;15.53
64947;BMP280;51469;52.150;4.682;2024-03-06T09:33:48;102434.13;;;15.56
64947;BMP280;51469;52.150;4.682;2024-03-06T09:36:14;102439.31;;;15.83
64947;BMP280;51469;52.150;4.682;2024-03-06T09:38:39;102432.59;;;16.14
64947;BMP280;51469;52.150;4.682;2024-03-06T09:41:06;102435.97;;;16.33
64947;BMP280;51469;52.150;4.682;2024-03-06T09:43:32;102443.69;;;16.47
64947;BMP280;51469;52.150;4.682;2024-03-06T09:45:58;102450.44;;;16.49
64947;BMP280;51469;52.150;4.682;2024-03-06T09:48:23;102450.56;;;16.63
64947;BMP280;51469;52.150;4.682;2024-03-06T09:50:49;102445.81;;;16.60
64947;BMP280;51469;52.150;4.682;2024-03-06T09:53:18;102450.00;;;16.47
64947;BMP280;51469;52.150;4.682;2024-03-06T09:55:46;102453.63;;;16.51
64947;BMP280;51469;52.150;4.682;2024-03-06T09:58:11;102452.44;;;16.52
64947;BMP280;51469;52.150;4.682;2024-03-06T10:00:37;102452.09;;;16.57
64947;BMP280;51469;52.150;4.682;2024-03-06T10:03:04;102461.25;;;16.28
64947;BMP280;51469;52.150;4.682;2024-03-06T10:05:34;102460.56;;;16.38
64947;BMP280;51469;52.150;4.682;2024-03-06T10:08:03;102465.63;;;16.29
64947;BMP280;51469;52.150;4.682;2024-03-06T10:10:32;102464.88;;;16.65
64947;BMP280;51469;52.150;4.682;2024-03-06T10:12:57;102475.03;;;16.54
64947;BMP280;51469;52.150;4.682;2024-03-06T10:15:25;102473.75;;;16.48
64947;BMP280;51469;52.150;4.682;2024-03-06T10:17:51;102472.16;;;16.47
64947;BMP280;51469;52.150;4.682;2024-03-06T10:20:19;102471.94;;;16.59
64947;BMP280;51469;52.150;4.682;2024-03-06T10:22:48;102471.84;;;16.52
64947;BMP280;51469;52.150;4.682;2024-03-06T10:25:14;102455.28;;;16.59
64947;BMP280;51469;52.150;4.682;2024-03-06T10:27:40;102474.44;;;16.71
64947;BMP280;51469;52.150;4.682;2024-03-06T10:30:06;102468.88;;;16.71
64947;BMP280;51469;52.150;4.682;2024-03-06T10:32:36;102469.38;;;16.80
64947;BMP280;51469;52.150;4.682;2024-03-06T10:35:01;102465.72;;;16.69
64947;BMP280;51469;52.150;4.682;2024-03-06T10:37:28;102473.00;;;16.88
64947;BMP280;51469;52.150;4.682;2024-03-06T10:39:54;102472.03;;;16.70
64947;BMP280;51469;52.150;4.682;2024-03-06T10:42:22;102478.66;;;16.98
64947;BMP280;51469;52.150;4.682;2024-03-06T10:44:52;102481.88;;;17.00
64947;BMP280;51469;52.150;4.682;2024-03-06T10:47:19;102477.25;;;17.18
64947;BMP280;51469;52.150;4.682;2024-03-06T10:49:45;102479.63;;;17.16
64947;BMP280;51469;52.150;4.682;2024-03-06T10:52:11;102479.97;;;17.11
64947;BMP280;51469;52.150;4.682;2024-03-06T10:54:37;102482.31;;;17.09
64947;BMP280;51469;52.150;4.682;2024-03-06T10:57:08;102484.97;;;17.42
64947;BMP280;51469;52.150;4.682;2024-03-06T10:59:34;102492.59;;;17.52
64947;BMP280;51469;52.150;4.682;2024-03-06T11:02:00;102486.94;;;17.41
64947;BMP280;51469;52.150;4.682;2024-03-06T11:04:27;102484.69;;;17.54
64947;BMP280;51469;52.150;4.682;2024-03-06T11:07:00;102485.59;;;17.68
64947;BMP280;51469;52.150;4.682;2024-03-06T11:09:26;102493.22;;;17.85
64947;BMP280;51469;52.150;4.682;2024-03-06T11:11:53;102496.16;;;18.17
64947;BMP280;51469;52.150;4.682;2024-03-06T11:14:22;102495.03;;;18.25
64947;BMP280;51469;52.150;4.682;2024-03-06T11:19:22;102498.06;;;17.99
64947;BMP280;51469;52.150;4.682;2024-03-06T11:21:47;102499.44;;;18.40
64947;BMP280;51469;52.150;4.682;2024-03-06T11:26:46;102505.00;;;18.40
64947;BMP280;51469;52.150;4.682;2024-03-06T11:29:15;102506.25;;;18.56
64947;BMP280;51469;52.150;4.682;2024-03-06T11:31:57;102508.25;;;18.70
64947;BMP280;51469;52.150;4.682;2024-03-06T11:34:23;102504.69;;;18.80
64947;BMP280;51469;52.150;4.682;2024-03-06T11:36:53;102508.31;;;18.98
64947;BMP280;51469;52.150;4.682;2024-03-06T11:39:19;102505.13;;;18.92
64947;BMP280;51469;52.150;4.682;2024-03-06T11:41:49;102513.88;;;18.91
64947;BMP280;51469;52.150;4.682;2024-03-06T11:44:17;102505.09;;;18.82
64947;BMP280;51469;52.150;4.682;2024-03-06T11:46:44;102507.50;;;18.80
64947;BMP280;51469;52.150;4.682;2024-03-06T11:51:44;102515.81;;;18.66
64947;BMP280;51469;52.150;4.682;2024-03-06T11:54:09;102524.91;;;18.59
64947;BMP280;51469;52.150;4.682;2024-03-06T11:56:36;102512.13;;;18.41
64947;BMP280;51469;52.150;4.682;2024-03-06T11:59:01;102514.59;;;18.67
64947;BMP280;51469;52.150;4.682;2024-03-06T12:01:27;102510.69;;;18.89
64947;BMP280;51469;52.150;4.682;2024-03-06T12:03:53;102514.69;;;19.02
64947;BMP280;51469;52.150;4.682;2024-03-06T12:06:20;102514.66;;;19.30
64947;BMP280;51469;52.150;4.682;2024-03-06T12:08:47;102520.63;;;19.46
64947;BMP280;51469;52.150;4.682;2024-03-06T12:11:13;102519.47;;;19.33
64947;BMP280;51469;52.150;4.682;2024-03-06T12:13:41;102507.94;;;19.24
64947;BMP280;51469;52.150;4.682;2024-03-06T12:16:07;102508.31;;;19.22
64947;BMP280;51469;52.150;4.682;2024-03-06T12:18:33;102511.50;;;19.28
64947;BMP280;51469;52.150;4.682;2024-03-06T12:21:01;102513.09;;;19.50
64947;BMP280;51469;52.150;4.682;2024-03-06T12:23:28;102524.22;;;19.50
64947;BMP280;51469;52.150;4.682;2024-03-06T12:26:09;102507.50;;;19.46
64947;BMP280;51469;52.150;4.682;2024-03-06T12:28:39;102508.31;;;19.40
64947;BMP280;51469;52.150;4.682;2024-03-06T12:31:05;102518.66;;;19.22
64947;BMP280;51469;52.150;4.682;2024-03-06T12:33:33;102525.38;;;18.93
64947;BMP280;51469;52.150;4.682;2024-03-06T12:36:06;102513.84;;;18.84
64947;BMP280;51469;52.150;4.682;2024-03-06T12:38:35;102522.59;;;19.21
64947;BMP280;51469;52.150;4.682;2024-03-06T12:41:01;102529.31;;;18.85
64947;BMP280;51469;52.150;4.682;2024-03-06T12:43:26;102524.19;;;19.08
64947;BMP280;51469;52.150;4.682;2024-03-06T12:45:54;102521.00;;;18.78
64947;BMP280;51469;52.150;4.682;2024-03-06T12:48:21;102524.91;;;18.63
64947;BMP280;51469;52.150;4.682;2024-03-06T12:50:46;102529.72;;;18.80
64947;BMP280;51469;52.150;4.682;2024-03-06T12:53:17;102523.75;;;18.85
64947;BMP280;51469;52.150;4.682;2024-03-06T12:55:43;102524.59;;;19.13
64947;BMP280;51469;52.150;4.682;2024-03-06T12:58:11;102520.25;;;19.23
64947;BMP280;51469;52.150;4.682;2024-03-06T13:00:36;102528.19;;;19.14
64947;BMP280;51469;52.150;4.682;2024-03-06T13:03:02;102521.81;;;19.10
64947;BMP280;51469;52.150;4.682;2024-03-06T13:05:27;102521.84;;;19.24
64947;BMP280;51469;52.150;4.682;2024-03-06T13:07:52;102517.88;;;19.11
64947;BMP280;51469;52.150;4.682;2024-03-06T13:10:18;102520.22;;;18.98
64947;BMP280;51469;52.150;4.682;2024-03-06T13:12:43;102523.41;;;19.49
64947;BMP280;51469;52.150;4.682;2024-03-06T13:15:09;102518.25;;;19.58
64947;BMP280;51469;52.150;4.682;2024-03-06T13:17:34;102518.59;;;19.71
64947;BMP280;51469;52.150;4.682;2024-03-06T13:20:00;102512.19;;;19.95
64947;BMP280;51469;52.150;4.682;2024-03-06T13:22:26;102505.13;;;19.45
64947;BMP280;51469;52.150;4.682;2024-03-06T13:24:51;102521.75;;;19.87
64947;BMP280;51469;52.150;4.682;2024-03-06T13:27:17;102522.53;;;19.87
64947;BMP280;51469;52.150;4.682;2024-03-06T13:29:43;102521.28;;;20.06
64947;BMP280;51469;52.150;4.682;2024-03-06T13:32:08;102520.84;;;20.18
64947;BMP280;51469;52.150;4.682;2024-03-06T13:34:33;102532.00;;;20.11
64947;BMP280;51469;52.150;4.682;2024-03-06T13:36:59;102518.63;;;19.57
64947;BMP280;51469;52.150;4.682;2024-03-06T13:39:24;102521.72;;;19.94
64947;BMP280;51469;52.150;4.682;2024-03-06T13:41:50;102524.91;;;19.89
64947;BMP280;51469;52.150;4.682;2024-03-06T13:44:17;102526.13;;;19.91
64947;BMP280;51469;52.150;4.682;2024-03-06T13:46:43;102533.75;;;19.66
64947;BMP280;51469;52.150;4.682;2024-03-06T13:49:34;102535.25;;;19.95
64947;BMP280;51469;52.150;4.682;2024-03-06T13:51:59;102524.81;;;20.10
64947;BMP280;51469;52.150;4.682;2024-03-06T13:54:25;102530.47;;;19.89
64947;BMP280;51469;52.150;4.682;2024-03-06T13:56:50;102530.47;;;19.96
64947;BMP280;51469;52.150;4.682;2024-03-06T13:59:15;102537.94;;;20.20
64947;BMP280;51469;52.150;4.682;2024-03-06T14:01:41;102533.56;;;20.19